sensor_id;sensor_type;location;lat;lon;timestamp;temperature;humidity
4002;DHT22;2015;48.670;9.060;2023-06-14T00:01:38;14.10;91.50
4002;DHT22;2015;48.670;9.060;2023-06-14T00:04:10;14.00;92.00
4002;DHT22;2015;48.670;9.060;2023-06-14T00:06:42;14.00;92.20
4002;DHT22;2015;48.670;9.060;2023-06-14T00:09:16;14.00;92.60
4002;DHT22;2015;48.670;9.060;2023-06-14T00:11:51;13.90;93.10
4002;DHT22;2015;48.670;9.060;2023-06-14T00:14:23;13.90;93.60
4002;DHT22;2015;48.670;9.060;2023-06-14T00:16:55;13.80;94.00
4002;DHT22;2015;48.670;9.060;2023-06-14T00:19:30;13.80;94.80
4002;DHT22;2015;48.670;9.060;2023-06-14T00:22:06;13.80;95.10
4002;DHT22;2015;48.670;9.060;2023-06-14T00:24:37;13.70;95.50
4002;DHT22;2015;48.670;9.060;2023-06-14T00:27:09;13.70;96.00
4002;DHT22;2015;48.670;9.060;2023-06-14T00:29:42;13.60;96.30
4002;DHT22;2015;48.670;9.060;2023-06-14T00:32:13;13.60;97.00
4002;DHT22;2015;48.670;9.060;2023-06-14T00:34:45;13.60;97.50
4002;DHT22;2015;48.670;9.060;2023-06-14T00:37:17;13.60;98.00
4002;DHT22;2015;48.670;9.060;2023-06-14T00:39:49;13.50;98.30
4002;DHT22;2015;48.670;9.060;2023-06-14T00:42:24;13.40;98.80
4002;DHT22;2015;48.670;9.060;2023-06-14T00:44:57;13.40;99.00
4002;DHT22;2015;48.670;9.060;2023-06-14T00:47:29;13.40;99.30
4002;DHT22;2015;48.670;9.060;2023-06-14T00:50:01;13.40;99.30
4002;DHT22;2015;48.670;9.060;2023-06-14T00:52:33;13.30;99.00
4002;DHT22;2015;48.670;9.060;2023-06-14T00:55:06;13.40;98.90
4002;DHT22;2015;48.670;9.060;2023-06-14T00:57:38;13.40;98.90
4002;DHT22;2015;48.670;9.060;2023-06-14T01:00:12;13.30;98.80
4002;DHT22;2015;48.670;9.060;2023-06-14T01:02:44;13.30;98.80
4002;DHT22;2015;48.670;9.060;2023-06-14T01:05:16;13.30;99.10
4002;DHT22;2015;48.670;9.060;2023-06-14T01:11:17;13.20;99.30
4002;DHT22;2015;48.670;9.060;2023-06-14T01:13:52;13.20;99.00
4002;DHT22;2015;48.670;9.060;2023-06-14T01:16:25;13.30;99.30
4002;DHT22;2015;48.670;9.060;2023-06-14T01:18:57;13.20;99.60
4002;DHT22;2015;48.670;9.060;2023-06-14T01:21:29;13.10;99.60
4002;DHT22;2015;48.670;9.060;2023-06-14T01:24:01;13.10;99.70
4002;DHT22;2015;48.670;9.060;2023-06-14T01:26:35;13.20;99.60
4002;DHT22;2015;48.670;9.060;2023-06-14T01:29:09;13.20;99.90
4002;DHT22;2015;48.670;9.060;2023-06-14T01:31:43;13.10;99.90
4002;DHT22;2015;48.670;9.060;2023-06-14T01:34:15;13.10;99.90
4002;DHT22;2015;48.670;9.060;2023-06-14T01:36:47;13.10;99.90
4002;DHT22;2015;48.670;9.060;2023-06-14T01:39:21;13.00;99.90
4002;DHT22;2015;48.670;9.060;2023-06-14T01:41:54;13.00;99.90
4002;DHT22;2015;48.670;9.060;2023-06-14T01:44:27;13.00;99.90
4002;DHT22;2015;48.670;9.060;2023-06-14T01:46:59;12.90;99.90
4002;DHT22;2015;48.670;9.060;2023-06-14T01:49:34;12.90;99.90
4002;DHT22;2015;48.670;9.060;2023-06-14T01:52:06;12.90;99.90
4002;DHT22;2015;48.670;9.060;2023-06-14T01:54:41;12.80;99.90
4002;DHT22;2015;48.670;9.060;2023-06-14T01:57:13;12.80;99.90
4002;DHT22;2015;48.670;9.060;2023-06-14T01:59:45;12.70;99.90
4002;DHT22;2015;48.670;9.060;2023-06-14T02:02:19;12.70;99.90
4002;DHT22;2015;48.670;9.060;2023-06-14T02:04:51;12.70;99.90
4002;DHT22;2015;48.670;9.060;2023-06-14T02:07:23;12.70;99.90
4002;DHT22;2015;48.670;9.060;2023-06-14T02:09:56;12.70;99.90
4002;DHT22;2015;48.670;9.060;2023-06-14T02:12:27;12.70;99.90
4002;DHT22;2015;48.670;9.060;2023-06-14T02:14:59;12.70;99.90
4002;DHT22;2015;48.670;9.060;2023-06-14T02:17:31;12.60;99.90
4002;DHT22;2015;48.670;9.060;2023-06-14T02:20:03;12.60;99.90
4002;DHT22;2015;48.670;9.060;2023-06-14T02:22:36;12.60;99.90
4002;DHT22;2015;48.670;9.060;2023-06-14T02:25:08;12.60;99.90
4002;DHT22;2015;48.670;9.060;2023-06-14T02:27:40;12.60;99.90
4002;DHT22;2015;48.670;9.060;2023-06-14T02:30:12;12.50;99.90
4002;DHT22;2015;48.670;9.060;2023-06-14T02:32:45;12.50;99.90
4002;DHT22;2015;48.670;9.060;2023-06-14T02:35:17;12.50;99.90
4002;DHT22;2015;48.670;9.060;2023-06-14T02:37:49;12.40;99.90
4002;DHT22;2015;48.670;9.060;2023-06-14T02:40:21;12.40;99.90
4002;DHT22;2015;48.670;9.060;2023-06-14T02:42:53;12.30;99.90
4002;DHT22;2015;48.670;9.060;2023-06-14T02:45:24;12.30;99.90
4002;DHT22;2015;48.670;9.060;2023-06-14T02:47:56;12.30;99.90
4002;DHT22;2015;48.670;9.060;2023-06-14T02:50:28;12.20;99.90
4002;DHT22;2015;48.670;9.060;2023-06-14T02:53:02;12.20;99.90
4002;DHT22;2015;48.670;9.060;2023-06-14T02:55:35;12.20;99.90
4002;DHT22;2015;48.670;9.060;2023-06-14T02:58:11;12.10;99.90
4002;DHT22;2015;48.670;9.060;2023-06-14T03:00:43;12.10;99.90
4002;DHT22;2015;48.670;9.060;2023-06-14T03:03:15;12.10;99.90
4002;DHT22;2015;48.670;9.060;2023-06-14T03:05:48;12.10;99.90
4002;DHT22;2015;48.670;9.060;2023-06-14T03:08:21;12.10;99.90
4002;DHT22;2015;48.670;9.060;2023-06-14T03:10:58;12.10;99.90
4002;DHT22;2015;48.670;9.060;2023-06-14T03:13:30;12.10;99.90
4002;DHT22;2015;48.670;9.060;2023-06-14T03:16:04;12.10;99.90
4002;DHT22;2015;48.670;9.060;2023-06-14T03:18:36;12.00;99.90
4002;DHT22;2015;48.670;9.060;2023-06-14T03:21:08;12.00;99.90
4002;DHT22;2015;48.670;9.060;2023-06-14T03:23:40;12.00;99.90
4002;DHT22;2015;48.670;9.060;2023-06-14T03:26:13;12.00;99.90
4002;DHT22;2015;48.670;9.060;2023-06-14T03:28:47;12.00;99.90
4002;DHT22;2015;48.670;9.060;2023-06-14T03:31:20;12.00;99.90
4002;DHT22;2015;48.670;9.060;2023-06-14T03:33:52;12.00;99.90
4002;DHT22;2015;48.670;9.060;2023-06-14T03:36:24;12.00;99.90
4002;DHT22;2015;48.670;9.060;2023-06-14T03:38:56;12.00;99.90
4002;DHT22;2015;48.670;9.060;2023-06-14T03:41:28;12.00;99.90
4002;DHT22;2015;48.670;9.060;2023-06-14T03:44:00;12.00;99.90
4002;DHT22;2015;48.670;9.060;2023-06-14T03:46:32;11.90;99.90
4002;DHT22;2015;48.670;9.060;2023-06-14T03:49:03;12.00;99.90
4002;DHT22;2015;48.670;9.060;2023-06-14T03:51:35;11.90;99.90
4002;DHT22;2015;48.670;9.060;2023-06-14T03:54:07;12.00;99.90
4002;DHT22;2015;48.670;9.060;2023-06-14T03:56:42;11.90;99.90
4002;DHT22;2015;48.670;9.060;2023-06-14T03:59:14;11.90;99.90
4002;DHT22;2015;48.670;9.060;2023-06-14T04:01:46;11.90;99.90
4002;DHT22;2015;48.670;9.060;2023-06-14T04:04:18;11.90;99.90
4002;DHT22;2015;48.670;9.060;2023-06-14T04:06:50;12.00;99.90
4002;DHT22;2015;48.670;9.060;2023-06-14T04:09:24;12.00;99.90
4002;DHT22;2015;48.670;9.060;2023-06-14T04:11:56;12.00;99.90
4002;DHT22;2015;48.670;9.060;2023-06-14T04:14:28;12.00;99.90
4002;DHT22;2015;48.670;9.060;2023-06-14T04:16:59;12.00;99.90
4002;DHT22;2015;48.670;9.060;2023-06-14T04:19:31;12.10;99.90
4002;DHT22;2015;48.670;9.060;2023-06-14T04:22:04;12.10;99.90
4002;DHT22;2015;48.670;9.060;2023-06-14T04:24:35;12.20;99.90
4002;DHT22;2015;48.670;9.060;2023-06-14T04:27:07;12.20;99.90
4002;DHT22;2015;48.670;9.060;2023-06-14T04:29:39;12.30;99.90
4002;DHT22;2015;48.670;9.060;2023-06-14T04:32:11;12.40;99.90
4002;DHT22;2015;48.670;9.060;2023-06-14T04:34:45;12.50;99.90
4002;DHT22;2015;48.670;9.060;2023-06-14T04:37:17;12.60;99.90
4002;DHT22;2015;48.670;9.060;2023-06-14T04:39:49;12.60;99.90
4002;DHT22;2015;48.670;9.060;2023-06-14T04:42:22;12.70;99.90
4002;DHT22;2015;48.670;9.060;2023-06-14T04:44:56;12.80;99.90
4002;DHT22;2015;48.670;9.060;2023-06-14T04:47:28;12.90;99.90
4002;DHT22;2015;48.670;9.060;2023-06-14T04:50:01;12.90;99.90
4002;DHT22;2015;48.670;9.060;2023-06-14T04:52:34;13.00;99.90
4002;DHT22;2015;48.670;9.060;2023-06-14T04:55:07;13.10;99.90
4002;DHT22;2015;48.670;9.060;2023-06-14T04:57:39;13.20;99.90
4002;DHT22;2015;48.670;9.060;2023-06-14T05:00:12;13.30;99.90
4002;DHT22;2015;48.670;9.060;2023-06-14T05:02:45;13.40;99.90
4002;DHT22;2015;48.670;9.060;2023-06-14T05:05:18;13.50;99.90
4002;DHT22;2015;48.670;9.060;2023-06-14T05:07:51;13.60;99.90
4002;DHT22;2015;48.670;9.060;2023-06-14T05:10:24;13.70;99.90
4002;DHT22;2015;48.670;9.060;2023-06-14T05:12:56;13.80;99.90
4002;DHT22;2015;48.670;9.060;2023-06-14T05:15:27;13.90;99.90
4002;DHT22;2015;48.670;9.060;2023-06-14T05:18:00;14.00;99.90
4002;DHT22;2015;48.670;9.060;2023-06-14T05:20:32;14.10;99.90
4002;DHT22;2015;48.670;9.060;2023-06-14T05:23:04;14.20;99.90
4002;DHT22;2015;48.670;9.060;2023-06-14T05:25:36;14.30;99.90
4002;DHT22;2015;48.670;9.060;2023-06-14T05:28:09;14.40;99.90
4002;DHT22;2015;48.670;9.060;2023-06-14T05:30:41;14.60;99.90
4002;DHT22;2015;48.670;9.060;2023-06-14T05:33:12;14.70;99.90
4002;DHT22;2015;48.670;9.060;2023-06-14T05:35:44;14.90;99.90
4002;DHT22;2015;48.670;9.060;2023-06-14T05:38:16;15.00;99.90
4002;DHT22;2015;48.670;9.060;2023-06-14T05:40:48;15.20;99.90
4002;DHT22;2015;48.670;9.060;2023-06-14T05:43:20;15.40;99.90
4002;DHT22;2015;48.670;9.060;2023-06-14T05:45:51;15.50;99.90
4002;DHT22;2015;48.670;9.060;2023-06-14T05:48:23;15.70;99.90
4002;DHT22;2015;48.670;9.060;2023-06-14T05:50:55;15.80;99.90
4002;DHT22;2015;48.670;9.060;2023-06-14T05:53:27;16.00;99.90
4002;DHT22;2015;48.670;9.060;2023-06-14T05:55:59;16.10;99.90
4002;DHT22;2015;48.670;9.060;2023-06-14T05:58:31;16.20;99.90
4002;DHT22;2015;48.670;9.060;2023-06-14T06:01:03;16.40;99.90
4002;DHT22;2015;48.670;9.060;2023-06-14T06:03:35;16.40;99.90
4002;DHT22;2015;48.670;9.060;2023-06-14T06:06:07;16.60;99.90
4002;DHT22;2015;48.670;9.060;2023-06-14T06:08:39;16.70;99.90
4002;DHT22;2015;48.670;9.060;2023-06-14T06:11:12;16.80;99.90
4002;DHT22;2015;48.670;9.060;2023-06-14T06:13:44;16.90;99.90
4002;DHT22;2015;48.670;9.060;2023-06-14T06:16:15;16.90;99.90
4002;DHT22;2015;48.670;9.060;2023-06-14T06:18:47;17.00;99.90
4002;DHT22;2015;48.670;9.060;2023-06-14T06:21:19;17.10;99.90
4002;DHT22;2015;48.670;9.060;2023-06-14T06:23:51;17.10;99.90
4002;DHT22;2015;48.670;9.060;2023-06-14T06:26:23;17.20;99.90
4002;DHT22;2015;48.670;9.060;2023-06-14T06:28:54;17.30;99.40
4002;DHT22;2015;48.670;9.060;2023-06-14T06:31:27;17.20;99.90
4002;DHT22;2015;48.670;9.060;2023-06-14T06:33:59;17.30;99.90
4002;DHT22;2015;48.670;9.060;2023-06-14T06:36:31;17.50;99.90
4002;DHT22;2015;48.670;9.060;2023-06-14T06:39:03;17.50;99.50
4002;DHT22;2015;48.670;9.060;2023-06-14T06:41:41;17.60;99.30
4002;DHT22;2015;48.670;9.060;2023-06-14T06:44:13;17.70;98.60
4002;DHT22;2015;48.670;9.060;2023-06-14T06:46:45;17.90;97.80
4002;DHT22;2015;48.670;9.060;2023-06-14T06:49:17;18.00;96.70
4002;DHT22;2015;48.670;9.060;2023-06-14T06:52:03;18.00;96.70
4002;DHT22;2015;48.670;9.060;2023-06-14T06:54:35;18.10;96.90
4002;DHT22;2015;48.670;9.060;2023-06-14T06:57:07;18.20;96.30
4002;DHT22;2015;48.670;9.060;2023-06-14T06:59:39;18.30;96.90
4002;DHT22;2015;48.670;9.060;2023-06-14T07:02:11;18.30;96.30
4002;DHT22;2015;48.670;9.060;2023-06-14T07:04:43;18.30;97.20
4002;DHT22;2015;48.670;9.060;2023-06-14T07:07:15;18.40;97.90
4002;DHT22;2015;48.670;9.060;2023-06-14T07:09:47;18.50;96.20
4002;DHT22;2015;48.670;9.060;2023-06-14T07:12:18;18.60;95.70
4002;DHT22;2015;48.670;9.060;2023-06-14T07:14:50;18.60;95.30
4002;DHT22;2015;48.670;9.060;2023-06-14T07:17:22;18.70;95.20
4002;DHT22;2015;48.670;9.060;2023-06-14T07:19:54;18.70;95.40
4002;DHT22;2015;48.670;9.060;2023-06-14T07:22:25;18.80;94.50
4002;DHT22;2015;48.670;9.060;2023-06-14T07:24:57;19.00;94.30
4002;DHT22;2015;48.670;9.060;2023-06-14T07:27:29;19.10;95.00
4002;DHT22;2015;48.670;9.060;2023-06-14T07:30:01;19.10;94.30
4002;DHT22;2015;48.670;9.060;2023-06-14T07:32:32;19.20;93.90
4002;DHT22;2015;48.670;9.060;2023-06-14T07:35:05;19.30;93.80
4002;DHT22;2015;48.670;9.060;2023-06-14T07:37:37;19.40;93.80
4002;DHT22;2015;48.670;9.060;2023-06-14T07:40:09;19.50;94.70
4002;DHT22;2015;48.670;9.060;2023-06-14T07:42:41;19.50;94.30
4002;DHT22;2015;48.670;9.060;2023-06-14T07:45:14;19.50;93.70
4002;DHT22;2015;48.670;9.060;2023-06-14T07:47:46;19.50;92.70
4002;DHT22;2015;48.670;9.060;2023-06-14T07:50:18;19.60;92.10
4002;DHT22;2015;48.670;9.060;2023-06-14T07:52:50;19.80;92.60
4002;DHT22;2015;48.670;9.060;2023-06-14T07:55:22;19.80;92.80
4002;DHT22;2015;48.670;9.060;2023-06-14T07:57:54;19.90;92.50
4002;DHT22;2015;48.670;9.060;2023-06-14T08:00:26;20.10;91.70
4002;DHT22;2015;48.670;9.060;2023-06-14T08:02:59;20.20;92.90
4002;DHT22;2015;48.670;9.060;2023-06-14T08:05:32;20.20;92.20
4002;DHT22;2015;48.670;9.060;2023-06-14T08:08:04;20.40;91.60
4002;DHT22;2015;48.670;9.060;2023-06-14T08:10:36;20.40;91.70
4002;DHT22;2015;48.670;9.060;2023-06-14T08:13:08;20.60;91.10
4002;DHT22;2015;48.670;9.060;2023-06-14T08:15:41;20.60;90.70
4002;DHT22;2015;48.670;9.060;2023-06-14T08:18:13;20.60;91.70
4002;DHT22;2015;48.670;9.060;2023-06-14T08:20:44;20.70;90.10
4002;DHT22;2015;48.670;9.060;2023-06-14T08:23:17;20.80;90.50
4002;DHT22;2015;48.670;9.060;2023-06-14T08:25:50;20.90;90.70
4002;DHT22;2015;48.670;9.060;2023-06-14T08:28:24;21.20;89.40
4002;DHT22;2015;48.670;9.060;2023-06-14T08:30:56;21.60;90.30
4002;DHT22;2015;48.670;9.060;2023-06-14T08:33:27;22.20;87.00
4002;DHT22;2015;48.670;9.060;2023-06-14T08:35:59;22.90;86.00
4002;DHT22;2015;48.670;9.060;2023-06-14T08:38:31;24.10;81.30
4002;DHT22;2015;48.670;9.060;2023-06-14T08:41:05;25.10;81.40
4002;DHT22;2015;48.670;9.060;2023-06-14T08:43:38;26.10;76.80
4002;DHT22;2015;48.670;9.060;2023-06-14T08:46:10;26.50;75.70
4002;DHT22;2015;48.670;9.060;2023-06-14T08:48:43;27.00;71.20
4002;DHT22;2015;48.670;9.060;2023-06-14T08:51:18;27.70;67.80
4002;DHT22;2015;48.670;9.060;2023-06-14T08:53:53;28.30;66.60
4002;DHT22;2015;48.670;9.060;2023-06-14T08:56:30;28.80;65.60
4002;DHT22;2015;48.670;9.060;2023-06-14T08:59:02;29.30;65.40
4002;DHT22;2015;48.670;9.060;2023-06-14T09:01:38;29.60;63.50
4002;DHT22;2015;48.670;9.060;2023-06-14T09:04:10;30.20;59.80
4002;DHT22;2015;48.670;9.060;2023-06-14T09:06:42;29.90;60.50
4002;DHT22;2015;48.670;9.060;2023-06-14T09:09:13;30.10;59.60
4002;DHT22;2015;48.670;9.060;2023-06-14T09:11:46;29.80;59.80
4002;DHT22;2015;48.670;9.060;2023-06-14T09:14:18;29.90;60.00
4002;DHT22;2015;48.670;9.060;2023-06-14T09:16:54;29.80;59.50
4002;DHT22;2015;48.670;9.060;2023-06-14T09:19:26;30.50;59.40
4002;DHT22;2015;48.670;9.060;2023-06-14T09:21:57;30.40;59.00
4002;DHT22;2015;48.670;9.060;2023-06-14T09:24:29;30.90;58.70
4002;DHT22;2015;48.670;9.060;2023-06-14T09:27:01;30.40;59.30
4002;DHT22;2015;48.670;9.060;2023-06-14T09:29:34;30.80;59.60
4002;DHT22;2015;48.670;9.060;2023-06-14T09:32:06;31.40;57.60
4002;DHT22;2015;48.670;9.060;2023-06-14T09:34:38;32.10;56.10
4002;DHT22;2015;48.670;9.060;2023-06-14T09:37:11;31.90;57.30
4002;DHT22;2015;48.670;9.060;2023-06-14T09:39:49;32.00;55.90
4002;DHT22;2015;48.670;9.060;2023-06-14T09:42:22;32.00;55.80
4002;DHT22;2015;48.670;9.060;2023-06-14T09:44:57;32.30;56.20
4002;DHT22;2015;48.670;9.060;2023-06-14T09:47:29;32.30;54.80
4002;DHT22;2015;48.670;9.060;2023-06-14T09:50:01;31.90;54.70
4002;DHT22;2015;48.670;9.060;2023-06-14T09:52:32;32.30;54.70
4002;DHT22;2015;48.670;9.060;2023-06-14T09:55:11;33.00;52.00
4002;DHT22;2015;48.670;9.060;2023-06-14T09:57:45;32.90;52.70
4002;DHT22;2015;48.670;9.060;2023-06-14T10:00:20;33.80;50.90
4002;DHT22;2015;48.670;9.060;2023-06-14T10:02:55;33.70;49.40
4002;DHT22;2015;48.670;9.060;2023-06-14T10:05:30;33.90;48.90
4002;DHT22;2015;48.670;9.060;2023-06-14T10:08:08;33.50;49.50
4002;DHT22;2015;48.670;9.060;2023-06-14T10:10:40;33.30;49.30
4002;DHT22;2015;48.670;9.060;2023-06-14T10:13:13;33.30;51.00
4002;DHT22;2015;48.670;9.060;2023-06-14T10:18:44;33.00;48.50
4002;DHT22;2015;48.670;9.060;2023-06-14T10:21:43;32.60;49.30
4002;DHT22;2015;48.670;9.060;2023-06-14T10:24:18;32.60;50.60
4002;DHT22;2015;48.670;9.060;2023-06-14T10:26:53;32.60;51.10
4002;DHT22;2015;48.670;9.060;2023-06-14T10:29:29;32.00;51.40
4002;DHT22;2015;48.670;9.060;2023-06-14T10:32:04;31.40;50.70
4002;DHT22;2015;48.670;9.060;2023-06-14T10:34:38;30.10;51.90
4002;DHT22;2015;48.670;9.060;2023-06-14T10:37:14;29.40;52.50
4002;DHT22;2015;48.670;9.060;2023-06-14T10:39:45;29.00;53.30
4002;DHT22;2015;48.670;9.060;2023-06-14T10:42:17;29.10;53.80
4002;DHT22;2015;48.670;9.060;2023-06-14T10:44:54;28.70;55.00
4002;DHT22;2015;48.670;9.060;2023-06-14T10:47:32;29.20;54.70
4002;DHT22;2015;48.670;9.060;2023-06-14T10:50:07;30.00;53.60
4002;DHT22;2015;48.670;9.060;2023-06-14T10:52:41;31.30;52.60
4002;DHT22;2015;48.670;9.060;2023-06-14T10:55:22;31.70;52.30
4002;DHT22;2015;48.670;9.060;2023-06-14T10:57:55;32.60;51.50
4002;DHT22;2015;48.670;9.060;2023-06-14T11:00:33;33.30;48.80
4002;DHT22;2015;48.670;9.060;2023-06-14T11:03:31;32.80;48.10
4002;DHT22;2015;48.670;9.060;2023-06-14T11:06:21;32.40;50.30
4002;DHT22;2015;48.670;9.060;2023-06-14T11:09:41;32.00;50.10
4002;DHT22;2015;48.670;9.060;2023-06-14T11:12:15;32.30;51.30
4002;DHT22;2015;48.670;9.060;2023-06-14T11:14:49;32.60;51.80
4002;DHT22;2015;48.670;9.060;2023-06-14T11:17:20;32.00;52.10
4002;DHT22;2015;48.670;9.060;2023-06-14T11:20:10;30.10;51.80
4002;DHT22;2015;48.670;9.060;2023-06-14T11:22:48;28.70;54.60
4002;DHT22;2015;48.670;9.060;2023-06-14T11:25:20;27.70;55.40
4002;DHT22;2015;48.670;9.060;2023-06-14T11:27:52;27.50;57.40
4002;DHT22;2015;48.670;9.060;2023-06-14T11:30:24;27.40;56.90
4002;DHT22;2015;48.670;9.060;2023-06-14T11:32:57;26.80;58.20
4002;DHT22;2015;48.670;9.060;2023-06-14T11:35:30;26.40;59.10
4002;DHT22;2015;48.670;9.060;2023-06-14T11:38:02;26.00;59.80
4002;DHT22;2015;48.670;9.060;2023-06-14T11:40:34;25.40;59.30
4002;DHT22;2015;48.670;9.060;2023-06-14T11:43:06;25.00;59.80
4002;DHT22;2015;48.670;9.060;2023-06-14T11:45:37;25.20;61.60
4002;DHT22;2015;48.670;9.060;2023-06-14T11:48:10;25.60;59.10
4002;DHT22;2015;48.670;9.060;2023-06-14T11:50:42;25.80;57.90
4002;DHT22;2015;48.670;9.060;2023-06-14T11:53:14;25.70;59.50
4002;DHT22;2015;48.670;9.060;2023-06-14T11:55:48;25.30;61.40
4002;DHT22;2015;48.670;9.060;2023-06-14T11:58:20;25.00;62.90
4002;DHT22;2015;48.670;9.060;2023-06-14T12:00:53;24.80;65.10
4002;DHT22;2015;48.670;9.060;2023-06-14T12:03:25;24.90;63.50
4002;DHT22;2015;48.670;9.060;2023-06-14T12:06:28;24.90;61.00
4002;DHT22;2015;48.670;9.060;2023-06-14T12:09:03;25.10;61.50
4002;DHT22;2015;48.670;9.060;2023-06-14T12:11:36;25.20;63.00
4002;DHT22;2015;48.670;9.060;2023-06-14T12:14:08;25.20;62.80
4002;DHT22;2015;48.670;9.060;2023-06-14T12:16:40;25.00;62.20
4002;DHT22;2015;48.670;9.060;2023-06-14T12:19:17;24.90;61.50
4002;DHT22;2015;48.670;9.060;2023-06-14T12:21:49;25.00;61.60
4002;DHT22;2015;48.670;9.060;2023-06-14T12:24:28;24.80;60.10
4002;DHT22;2015;48.670;9.060;2023-06-14T12:27:01;24.70;61.20
4002;DHT22;2015;48.670;9.060;2023-06-14T12:29:35;24.60;60.20
4002;DHT22;2015;48.670;9.060;2023-06-14T12:32:07;24.60;60.30
4002;DHT22;2015;48.670;9.060;2023-06-14T12:34:39;24.60;62.10
4002;DHT22;2015;48.670;9.060;2023-06-14T12:37:11;24.70;62.60
4002;DHT22;2015;48.670;9.060;2023-06-14T12:39:44;25.00;60.80
4002;DHT22;2015;48.670;9.060;2023-06-14T12:42:16;25.00;60.80
4002;DHT22;2015;48.670;9.060;2023-06-14T12:44:48;24.90;59.80
4002;DHT22;2015;48.670;9.060;2023-06-14T12:47:19;24.90;60.00
4002;DHT22;2015;48.670;9.060;2023-06-14T12:49:51;24.70;59.50
4002;DHT22;2015;48.670;9.060;2023-06-14T12:52:23;25.00;61.80
4002;DHT22;2015;48.670;9.060;2023-06-14T12:54:55;24.80;59.60
4002;DHT22;2015;48.670;9.060;2023-06-14T12:57:27;24.90;60.00
4002;DHT22;2015;48.670;9.060;2023-06-14T13:00:00;24.90;60.60
4002;DHT22;2015;48.670;9.060;2023-06-14T13:02:32;25.10;60.30
4002;DHT22;2015;48.670;9.060;2023-06-14T13:05:04;25.20;60.10
4002;DHT22;2015;48.670;9.060;2023-06-14T13:07:37;24.90;60.40
4002;DHT22;2015;48.670;9.060;2023-06-14T13:10:09;24.80;61.00
4002;DHT22;2015;48.670;9.060;2023-06-14T13:12:41;24.70;60.40
4002;DHT22;2015;48.670;9.060;2023-06-14T13:15:13;24.60;62.10
4002;DHT22;2015;48.670;9.060;2023-06-14T13:17:44;24.20;60.70
4002;DHT22;2015;48.670;9.060;2023-06-14T13:20:20;23.90;62.80
4002;DHT22;2015;48.670;9.060;2023-06-14T13:22:52;23.70;62.10
4002;DHT22;2015;48.670;9.060;2023-06-14T13:25:24;23.70;62.40
4002;DHT22;2015;48.670;9.060;2023-06-14T13:27:56;23.70;62.20
4002;DHT22;2015;48.670;9.060;2023-06-14T13:30:28;23.70;61.80
4002;DHT22;2015;48.670;9.060;2023-06-14T13:33:00;23.80;62.90
4002;DHT22;2015;48.670;9.060;2023-06-14T13:35:31;24.00;63.20
4002;DHT22;2015;48.670;9.060;2023-06-14T13:38:03;24.00;64.10
4002;DHT22;2015;48.670;9.060;2023-06-14T13:40:35;23.80;63.50
4002;DHT22;2015;48.670;9.060;2023-06-14T13:43:07;23.90;62.80
4002;DHT22;2015;48.670;9.060;2023-06-14T13:45:39;23.90;62.10
4002;DHT22;2015;48.670;9.060;2023-06-14T13:48:28;23.70;67.90
4002;DHT22;2015;48.670;9.060;2023-06-14T13:51:17;23.50;68.90
4002;DHT22;2015;48.670;9.060;2023-06-14T13:54:07;23.60;68.50
4002;DHT22;2015;48.670;9.060;2023-06-14T13:56:57;23.70;65.70
4002;DHT22;2015;48.670;9.060;2023-06-14T13:59:46;23.80;63.80
4002;DHT22;2015;48.670;9.060;2023-06-14T14:02:35;23.70;64.10
4002;DHT22;2015;48.670;9.060;2023-06-14T14:05:24;23.70;63.90
4002;DHT22;2015;48.670;9.060;2023-06-14T14:08:17;23.40;63.00
4002;DHT22;2015;48.670;9.060;2023-06-14T14:10:49;23.20;64.50
4002;DHT22;2015;48.670;9.060;2023-06-14T14:13:38;23.10;64.80
4002;DHT22;2015;48.670;9.060;2023-06-14T14:16:29;23.00;66.20
4002;DHT22;2015;48.670;9.060;2023-06-14T14:19:02;23.10;65.60
4002;DHT22;2015;48.670;9.060;2023-06-14T14:21:34;23.00;66.10
4002;DHT22;2015;48.670;9.060;2023-06-14T14:24:06;23.10;66.20
4002;DHT22;2015;48.670;9.060;2023-06-14T14:26:55;23.10;67.70
4002;DHT22;2015;48.670;9.060;2023-06-14T14:29:31;23.20;65.90
4002;DHT22;2015;48.670;9.060;2023-06-14T14:32:03;23.30;66.20
4002;DHT22;2015;48.670;9.060;2023-06-14T14:34:35;23.30;65.40
4002;DHT22;2015;48.670;9.060;2023-06-14T14:37:07;23.30;64.10
4002;DHT22;2015;48.670;9.060;2023-06-14T14:39:38;23.10;64.50
4002;DHT22;2015;48.670;9.060;2023-06-14T14:42:10;23.00;65.10
4002;DHT22;2015;48.670;9.060;2023-06-14T14:44:43;23.00;67.00
4002;DHT22;2015;48.670;9.060;2023-06-14T14:47:16;22.80;65.40
4002;DHT22;2015;48.670;9.060;2023-06-14T14:49:47;22.70;66.50
4002;DHT22;2015;48.670;9.060;2023-06-14T14:52:19;22.70;65.00
4002;DHT22;2015;48.670;9.060;2023-06-14T14:54:55;22.80;68.10
4002;DHT22;2015;48.670;9.060;2023-06-14T14:57:27;22.70;67.40
4002;DHT22;2015;48.670;9.060;2023-06-14T14:59:59;22.80;66.60
4002;DHT22;2015;48.670;9.060;2023-06-14T15:02:30;22.80;66.80
4002;DHT22;2015;48.670;9.060;2023-06-14T15:05:03;22.90;66.40
4002;DHT22;2015;48.670;9.060;2023-06-14T15:07:34;23.00;65.90
4002;DHT22;2015;48.670;9.060;2023-06-14T15:10:07;23.20;67.20
4002;DHT22;2015;48.670;9.060;2023-06-14T15:12:40;23.10;65.80
4002;DHT22;2015;48.670;9.060;2023-06-14T15:15:12;23.10;66.20
4002;DHT22;2015;48.670;9.060;2023-06-14T15:17:43;23.20;67.20
4002;DHT22;2015;48.670;9.060;2023-06-14T15:20:15;23.00;68.70
4002;DHT22;2015;48.670;9.060;2023-06-14T15:22:48;22.90;67.50
4002;DHT22;2015;48.670;9.060;2023-06-14T15:25:21;22.80;67.70
4002;DHT22;2015;48.670;9.060;2023-06-14T15:27:53;22.70;68.60
4002;DHT22;2015;48.670;9.060;2023-06-14T15:30:25;22.60;69.40
4002;DHT22;2015;48.670;9.060;2023-06-14T15:32:58;22.60;68.20
4002;DHT22;2015;48.670;9.060;2023-06-14T15:35:29;22.70;69.30
4002;DHT22;2015;48.670;9.060;2023-06-14T15:38:01;22.70;68.50
4002;DHT22;2015;48.670;9.060;2023-06-14T15:40:33;22.80;69.80
4002;DHT22;2015;48.670;9.060;2023-06-14T15:43:05;22.90;69.90
4002;DHT22;2015;48.670;9.060;2023-06-14T15:45:37;22.90;68.40
4002;DHT22;2015;48.670;9.060;2023-06-14T15:48:09;23.00;69.50
4002;DHT22;2015;48.670;9.060;2023-06-14T15:50:41;23.00;68.50
4002;DHT22;2015;48.670;9.060;2023-06-14T15:53:13;23.00;70.10
4002;DHT22;2015;48.670;9.060;2023-06-14T15:55:45;23.00;70.90
4002;DHT22;2015;48.670;9.060;2023-06-14T15:58:17;22.90;69.60
4002;DHT22;2015;48.670;9.060;2023-06-14T16:00:50;22.90;69.80
4002;DHT22;2015;48.670;9.060;2023-06-14T16:03:22;23.00;68.20
4002;DHT22;2015;48.670;9.060;2023-06-14T16:05:54;22.90;68.40
4002;DHT22;2015;48.670;9.060;2023-06-14T16:08:26;22.60;69.40
4002;DHT22;2015;48.670;9.060;2023-06-14T16:11:11;22.40;69.80
4002;DHT22;2015;48.670;9.060;2023-06-14T16:13:43;22.30;69.60
4002;DHT22;2015;48.670;9.060;2023-06-14T16:16:15;22.10;70.20
4002;DHT22;2015;48.670;9.060;2023-06-14T16:18:47;22.00;70.10
4002;DHT22;2015;48.670;9.060;2023-06-14T16:21:19;22.10;70.40
4002;DHT22;2015;48.670;9.060;2023-06-14T16:23:50;22.20;71.50
4002;DHT22;2015;48.670;9.060;2023-06-14T16:26:22;22.30;70.70
4002;DHT22;2015;48.670;9.060;2023-06-14T16:28:54;22.50;70.80
4002;DHT22;2015;48.670;9.060;2023-06-14T16:31:26;22.50;70.40
4002;DHT22;2015;48.670;9.060;2023-06-14T16:33:58;22.40;69.40
4002;DHT22;2015;48.670;9.060;2023-06-14T16:36:29;22.30;69.70
4002;DHT22;2015;48.670;9.060;2023-06-14T16:39:01;22.20;71.90
4002;DHT22;2015;48.670;9.060;2023-06-14T16:41:33;22.30;71.90
4002;DHT22;2015;48.670;9.060;2023-06-14T16:44:05;22.20;71.70
4002;DHT22;2015;48.670;9.060;2023-06-14T16:46:37;22.10;72.00
4002;DHT22;2015;48.670;9.060;2023-06-14T16:49:09;22.00;72.20